Alinda, Pennsylvania
Current Conditions -  °F | °C
As of 7:56 AM on Thursday 30 Oct 2014 (Local Time) from KCXY Reporting Station
Clear Clear  
Wind Chill:   Ceiling: Unl
Heat Index:   Visibility: 10mi
Dew Point:   Wind: 3mph
Humidity: 82%   Direction: 320°NW
Pressure: 30.04"   Gusts: NA
Location:  40.3086°N, 77.3363°W
Report Text: KCXY 301156Z 32003KT 10SM CLR 06/03 A3004 RMK AO2 SLP175 70011 T00610033 10067 20050 51015
Loading
Personal Weather Stations






























Interactive Weather Map
Tropical Storm Tracking
New forecast layout! Learn more

10-Day Weather Forecast

Advertisements
Track Severe Weather on mobile